createdAt,value
2018-07-09T00:00:08.864Z,74.90
2018-07-09T00:02:37.358Z,75.06
2018-07-09T00:05:05.960Z,74.77
2018-07-09T00:07:34.410Z,75.05
2018-07-09T00:10:02.825Z,75.21
2018-07-09T00:12:31.331Z,76.95
2018-07-09T00:14:59.908Z,76.79
2018-07-09T00:17:28.367Z,76.97
2018-07-09T00:19:56.811Z,78.21
2018-07-09T00:22:25.385Z,77.82
2018-07-09T00:24:53.854Z,77.71
2018-07-09T00:27:22.356Z,77.99
2018-07-09T00:29:50.920Z,78.23
2018-07-09T00:32:19.744Z,78.04
2018-07-09T00:34:48.199Z,78.65
2018-07-09T00:37:16.690Z,79.71
2018-07-09T00:39:45.251Z,78.72
2018-07-09T00:42:13.680Z,78.42
2018-07-09T00:44:42.203Z,79.16
2018-07-09T00:47:10.699Z,79.39
2018-07-09T00:49:39.201Z,79.99
2018-07-09T00:52:07.666Z,80.45
2018-07-09T00:54:36.042Z,80.45
2018-07-09T00:57:04.578Z,80.16
2018-07-09T00:59:33.135Z,81.11
2018-07-09T01:02:01.646Z,81.21
2018-07-09T01:04:30.087Z,81.60
2018-07-09T01:06:58.575Z,81.32
2018-07-09T01:09:27.074Z,82.36
2018-07-09T01:12:06.560Z,81.17
2018-07-09T01:14:35.048Z,82.51
2018-07-09T01:17:03.561Z,82.33
2018-07-09T01:19:32.023Z,82.54
2018-07-09T01:22:00.567Z,82.89
2018-07-09T01:24:29.153Z,82.65
2018-07-09T01:26:57.726Z,83.91
2018-07-09T01:29:26.380Z,83.87
2018-07-09T01:31:54.964Z,84.44
2018-07-09T01:34:23.488Z,84.30
2018-07-09T01:36:52.004Z,85.39
2018-07-09T01:39:20.537Z,85.21
2018-07-09T01:41:49.020Z,85.21
2018-07-09T01:44:17.629Z,85.07
2018-07-09T01:46:46.164Z,84.29
2018-07-09T01:49:14.634Z,84.50
2018-07-09T01:51:43.162Z,84.70
2018-07-09T01:54:11.688Z,85.12
2018-07-09T01:56:40.180Z,85.05
2018-07-09T01:59:08.721Z,85.24
2018-07-09T02:01:37.346Z,85.31
2018-07-09T02:04:05.944Z,85.45
2018-07-09T02:06:34.653Z,85.68
2018-07-09T02:09:05.078Z,86.92
2018-07-09T02:11:33.543Z,86.23
2018-07-09T02:14:02.018Z,86.48
2018-07-09T02:16:30.395Z,86.33
2018-07-09T02:18:58.803Z,87.50
2018-07-09T02:21:27.450Z,86.42
2018-07-09T02:23:56.040Z,86.28
2018-07-09T02:26:24.713Z,86.42
2018-07-09T02:28:53.375Z,86.60
2018-07-09T02:31:22.132Z,87.11
2018-07-09T02:33:50.849Z,87.19
2018-07-09T02:36:19.327Z,88.63
2018-07-09T02:38:47.859Z,88.58
2018-07-09T02:41:16.332Z,89.12
2018-07-09T02:43:44.841Z,88.17
2018-07-09T02:46:13.312Z,88.05
2018-07-09T02:48:41.757Z,89.14
2018-07-09T02:51:10.187Z,88.36
2018-07-09T02:53:38.768Z,89.58
2018-07-09T02:56:07.348Z,89.20
2018-07-09T02:58:35.908Z,88.68
2018-07-09T03:01:04.564Z,89.95
2018-07-09T03:03:32.873Z,90.10
2018-07-09T03:06:01.334Z,89.77
2018-07-09T03:08:29.744Z,89.91
2018-07-09T03:10:58.217Z,90.42
2018-07-09T03:13:26.643Z,89.95
2018-07-09T03:15:55.147Z,90.11
2018-07-09T03:18:23.631Z,89.86
2018-07-09T03:20:52.067Z,91.24
2018-07-09T03:23:20.482Z,91.49
2018-07-09T03:25:48.900Z,90.79
2018-07-09T03:28:17.332Z,91.52
2018-07-09T03:30:45.807Z,91.66
2018-07-09T03:33:14.289Z,91.63
2018-07-09T03:35:42.860Z,91.64
2018-07-09T03:38:11.355Z,91.34
2018-07-09T03:40:39.877Z,92.57
2018-07-09T03:43:08.300Z,92.19
2018-07-09T03:45:36.776Z,92.27
2018-07-09T03:48:05.325Z,92.55
2018-07-09T03:50:33.863Z,92.85
2018-07-09T03:53:02.320Z,91.84
2018-07-09T03:55:30.758Z,92.78
2018-07-09T03:57:59.218Z,93.28
2018-07-09T04:00:27.698Z,93.53
2018-07-09T04:02:56.235Z,92.55
2018-07-09T04:05:24.664Z,93.05
2018-07-09T04:07:53.062Z,92.06
2018-07-09T04:10:21.537Z,92.83
2018-07-09T04:12:50.106Z,92.74
2018-07-09T04:15:18.711Z,92.25
2018-07-09T04:17:47.192Z,92.33
2018-07-09T04:20:15.714Z,92.15
2018-07-09T04:22:44.212Z,91.50
2018-07-09T04:25:12.674Z,92.97
2018-07-09T04:27:41.176Z,92.65
2018-07-09T04:30:09.603Z,92.69
2018-07-09T04:32:38.013Z,93.10
2018-07-09T04:35:06.512Z,91.85
2018-07-09T04:37:35.418Z,91.78
2018-07-09T04:40:04.127Z,91.60
2018-07-09T04:42:32.597Z,90.60
2018-07-09T04:45:01.007Z,90.29
2018-07-09T04:47:29.464Z,90.37
2018-07-09T04:49:57.950Z,89.59
2018-07-09T04:52:26.399Z,90.15
2018-07-09T04:54:55.075Z,90.26
2018-07-09T04:57:23.567Z,90.12
2018-07-09T04:59:52.044Z,89.58
2018-07-09T05:02:20.538Z,90.87
2018-07-09T05:04:49.060Z,90.01
2018-07-09T05:07:17.517Z,89.93
2018-07-09T05:09:45.978Z,89.87
2018-07-09T05:12:14.551Z,89.62
2018-07-09T05:14:42.998Z,88.98
2018-07-09T05:17:11.427Z,88.92
2018-07-09T05:19:39.999Z,88.26
2018-07-09T05:22:08.547Z,88.36
2018-07-09T05:24:36.980Z,88.12
2018-07-09T05:27:05.758Z,87.41
2018-07-09T05:29:34.194Z,87.26
2018-07-09T05:32:02.655Z,86.66
2018-07-09T05:34:31.201Z,87.38
2018-07-09T05:36:59.641Z,87.25
2018-07-09T05:39:28.163Z,86.55
2018-07-09T05:41:56.690Z,86.47
2018-07-09T05:44:25.529Z,85.77
2018-07-09T05:46:54.087Z,83.16
2018-07-09T05:49:22.848Z,81.88
2018-07-09T05:51:51.329Z,81.79
2018-07-09T05:54:19.748Z,81.88
2018-07-09T05:56:48.249Z,81.17
2018-07-09T05:59:16.695Z,82.21
2018-07-09T06:01:45.211Z,82.72
2018-07-09T06:04:13.698Z,81.84
2018-07-09T06:06:42.192Z,80.64
2018-07-09T06:09:11.170Z,78.56
2018-07-09T06:11:39.681Z,76.98
2018-07-09T06:14:08.151Z,76.10
2018-07-09T06:16:36.748Z,77.65
2018-07-09T06:19:05.387Z,77.11
2018-07-09T06:21:33.843Z,76.83
2018-07-09T06:24:02.470Z,75.34
2018-07-09T06:26:30.987Z,76.68
2018-07-09T06:28:59.459Z,78.12
2018-07-09T06:31:27.951Z,77.56
2018-07-09T06:33:56.404Z,79.98
2018-07-09T06:36:24.888Z,81.05
2018-07-09T06:38:53.325Z,81.12
2018-07-09T06:41:21.787Z,80.78
2018-07-09T06:43:50.290Z,80.89
2018-07-09T06:46:18.751Z,79.85
2018-07-09T06:48:47.298Z,79.76
2018-07-09T06:51:15.753Z,77.91
2018-07-09T06:53:44.216Z,77.09
2018-07-09T06:56:12.866Z,75.66
2018-07-09T06:58:41.352Z,74.78
2018-07-09T07:01:09.835Z,74.04
2018-07-09T07:03:38.275Z,74.28
2018-07-09T07:06:06.775Z,72.52
2018-07-09T07:08:35.192Z,72.66
2018-07-09T07:11:03.669Z,71.69
2018-07-09T07:13:32.137Z,70.59
2018-07-09T07:16:00.533Z,70.12
2018-07-09T07:18:28.944Z,68.41
2018-07-09T07:20:57.405Z,67.77
2018-07-09T07:23:25.819Z,67.57
2018-07-09T07:25:54.390Z,66.19
2018-07-09T07:28:22.963Z,64.90
2018-07-09T07:30:51.469Z,64.96
2018-07-09T07:33:20.017Z,62.58
2018-07-09T07:35:48.492Z,60.46
2018-07-09T07:38:16.989Z,59.75
2018-07-09T07:40:45.496Z,58.69
2018-07-09T07:43:13.915Z,60.12
2018-07-09T07:45:42.356Z,58.82
2018-07-09T07:48:10.893Z,57.72
2018-07-09T07:50:39.540Z,56.01
2018-07-09T07:53:07.852Z,57.00
2018-07-09T07:55:36.320Z,56.97
2018-07-09T07:58:04.806Z,56.99
2018-07-09T08:00:33.240Z,56.32
2018-07-09T08:03:01.785Z,58.16
2018-07-09T08:05:30.162Z,58.49
2018-07-09T08:07:58.646Z,58.02
2018-07-09T08:10:27.159Z,56.85
2018-07-09T08:15:24.206Z,57.31
2018-07-09T08:17:52.648Z,57.24
2018-07-09T08:20:21.073Z,57.84
2018-07-09T08:22:49.505Z,57.50
2018-07-09T08:25:17.986Z,57.02
2018-07-09T08:27:46.496Z,57.86
2018-07-09T08:30:15.164Z,58.50
2018-07-09T08:32:43.656Z,57.63
2018-07-09T08:35:12.089Z,57.64
2018-07-09T08:40:39.334Z,56.53
2018-07-09T08:43:07.889Z,56.96
2018-07-09T08:45:36.433Z,57.67
2018-07-09T08:48:04.837Z,58.12
2018-07-09T08:50:33.362Z,57.56
2018-07-09T08:53:01.807Z,57.10
2018-07-09T08:55:30.231Z,56.71
2018-07-09T08:57:58.707Z,57.34
2018-07-09T09:00:27.556Z,57.32
2018-07-09T09:02:56.045Z,58.35
2018-07-09T09:05:24.623Z,58.00
2018-07-09T09:07:53.149Z,58.00
2018-07-09T09:10:21.593Z,57.97
2018-07-09T09:12:50.108Z,58.06
2018-07-09T09:15:18.618Z,58.17
2018-07-09T09:17:47.252Z,58.21
2018-07-09T09:20:15.755Z,57.87
2018-07-09T09:22:44.278Z,58.43
2018-07-09T09:25:12.818Z,57.39
2018-07-09T09:27:41.421Z,57.53
2018-07-09T09:30:09.964Z,58.11
2018-07-09T09:32:38.390Z,58.49
2018-07-09T09:35:06.968Z,58.16
2018-07-09T09:37:35.529Z,58.65
2018-07-09T09:40:04.060Z,59.87
2018-07-09T09:42:32.588Z,60.53
2018-07-09T09:45:01.047Z,60.67
2018-07-09T09:47:29.527Z,60.36
2018-07-09T09:49:58.003Z,61.84
2018-07-09T09:52:26.425Z,61.70
2018-07-09T09:54:55.127Z,62.47
2018-07-09T09:57:23.677Z,63.12
2018-07-09T09:59:52.218Z,63.20
2018-07-09T10:02:20.719Z,63.28
2018-07-09T10:04:49.167Z,63.36
2018-07-09T10:07:17.702Z,62.93
2018-07-09T10:09:46.547Z,62.75
2018-07-09T10:12:15.089Z,61.81
2018-07-09T10:14:43.625Z,60.65
2018-07-09T10:17:12.087Z,61.64
2018-07-09T10:19:41.048Z,61.69
2018-07-09T10:22:09.619Z,61.40
2018-07-09T10:24:38.104Z,62.83
2018-07-09T10:27:06.818Z,63.50
2018-07-09T10:29:35.320Z,63.36
2018-07-09T10:32:03.836Z,63.81
2018-07-09T10:34:32.453Z,63.63
2018-07-09T10:37:01.606Z,63.90
2018-07-09T10:39:30.152Z,64.35
2018-07-09T10:41:58.665Z,64.47
2018-07-09T10:44:27.091Z,65.80
2018-07-09T10:46:55.576Z,65.84
2018-07-09T10:49:24.077Z,66.15
2018-07-09T10:51:52.653Z,66.12
2018-07-09T10:54:21.130Z,65.89
2018-07-09T10:56:49.700Z,64.93
2018-07-09T10:59:18.187Z,64.96
2018-07-09T11:01:46.667Z,64.02
2018-07-09T11:04:15.297Z,63.65
2018-07-09T11:06:43.734Z,62.79
2018-07-09T11:09:12.359Z,62.25
2018-07-09T11:11:40.778Z,61.07
2018-07-09T11:14:09.261Z,61.10
2018-07-09T11:16:37.858Z,61.49
2018-07-09T11:19:06.386Z,60.60
2018-07-09T11:21:34.834Z,60.88
2018-07-09T11:24:03.338Z,61.16
2018-07-09T11:26:31.794Z,60.50
2018-07-09T11:29:00.304Z,58.83
2018-07-09T11:31:28.833Z,59.05
2018-07-09T11:33:57.451Z,59.72
2018-07-09T11:36:25.993Z,58.68
2018-07-09T11:38:54.428Z,58.41
2018-07-09T11:41:22.886Z,57.92
2018-07-09T11:43:51.334Z,58.70
2018-07-09T11:46:19.741Z,58.42
2018-07-09T11:48:48.173Z,57.81
2018-07-09T11:51:16.695Z,58.63
2018-07-09T11:53:45.196Z,58.92
2018-07-09T11:56:13.737Z,59.50
2018-07-09T11:58:42.213Z,59.95
2018-07-09T12:01:10.664Z,58.79
2018-07-09T12:03:39.104Z,58.50
2018-07-09T12:06:07.674Z,58.69
2018-07-09T12:08:36.097Z,58.05
2018-07-09T12:11:04.528Z,57.67
2018-07-09T12:13:33.111Z,58.01
2018-07-09T12:16:01.558Z,58.47
2018-07-09T12:18:30.078Z,58.44
2018-07-09T12:20:58.570Z,57.91
2018-07-09T12:23:26.987Z,58.33
2018-07-09T12:25:55.479Z,58.46
2018-07-09T12:28:24.031Z,58.48
2018-07-09T12:30:52.600Z,57.23
2018-07-09T12:33:21.085Z,56.11
2018-07-09T12:35:49.582Z,54.97
2018-07-09T12:38:18.021Z,55.75
2018-07-09T12:40:46.626Z,56.64
2018-07-09T12:43:15.060Z,56.08
2018-07-09T12:45:43.489Z,57.14
2018-07-09T12:48:11.912Z,58.00
2018-07-09T12:50:40.470Z,57.52
2018-07-09T12:53:09.054Z,56.93
2018-07-09T12:55:37.476Z,57.95
2018-07-09T12:58:06.059Z,58.39
2018-07-09T13:00:34.542Z,58.18
2018-07-09T13:03:03.193Z,58.53
2018-07-09T13:05:31.867Z,58.21
2018-07-09T13:08:00.382Z,58.46
2018-07-09T13:10:28.855Z,57.27
2018-07-09T13:12:57.302Z,58.12
2018-07-09T13:15:25.792Z,57.35
2018-07-09T13:17:54.302Z,57.53
2018-07-09T13:20:22.771Z,57.54
2018-07-09T13:22:51.266Z,57.04
2018-07-09T13:25:19.874Z,56.00
2018-07-09T13:27:48.375Z,55.71
2018-07-09T13:30:16.851Z,56.08
2018-07-09T13:32:45.331Z,56.87
2018-07-09T13:35:13.838Z,54.92
2018-07-09T13:37:42.322Z,55.69
2018-07-09T13:40:10.814Z,55.24
2018-07-09T13:42:39.439Z,55.76
2018-07-09T13:45:07.951Z,56.27
2018-07-09T13:47:36.516Z,55.74
2018-07-09T13:50:05.101Z,56.37
2018-07-09T13:52:33.579Z,56.49
2018-07-09T13:55:02.107Z,55.75
2018-07-09T13:57:30.647Z,56.16
2018-07-09T13:59:59.158Z,56.27
2018-07-09T14:02:27.625Z,55.06
2018-07-09T14:04:56.078Z,54.81
2018-07-09T14:07:24.520Z,54.85
2018-07-09T14:09:53.023Z,54.94
2018-07-09T14:12:21.534Z,56.26
2018-07-09T14:14:50.054Z,56.19
2018-07-09T14:17:18.504Z,56.82
2018-07-09T14:20:24.529Z,55.68
2018-07-09T14:22:52.989Z,56.27
2018-07-09T14:25:21.493Z,55.56
2018-07-09T14:27:50.035Z,55.45
2018-07-09T14:30:18.795Z,56.40
2018-07-09T14:32:47.281Z,55.44
2018-07-09T14:35:15.738Z,55.19
2018-07-09T14:37:44.197Z,54.50
2018-07-09T14:40:12.600Z,54.42
2018-07-09T14:42:41.095Z,54.77
2018-07-09T14:45:09.537Z,54.15
2018-07-09T14:47:38.005Z,55.17
2018-07-09T14:50:06.701Z,54.97
2018-07-09T14:52:35.186Z,54.29
2018-07-09T14:55:03.664Z,53.98
2018-07-09T14:57:32.156Z,55.41
2018-07-09T15:00:00.638Z,55.17
2018-07-09T15:02:29.162Z,53.72
2018-07-09T15:04:57.606Z,53.37
2018-07-09T15:07:26.178Z,54.39
2018-07-09T15:09:54.617Z,53.51
2018-07-09T15:12:23.083Z,54.69
2018-07-09T15:14:51.578Z,54.20
2018-07-09T15:17:20.111Z,52.68
2018-07-09T15:19:48.716Z,53.37
2018-07-09T15:22:17.224Z,52.86
2018-07-09T15:24:45.774Z,53.66
2018-07-09T15:27:14.311Z,53.39
2018-07-09T15:29:42.900Z,54.17
2018-07-09T15:32:20.715Z,53.82
2018-07-09T15:34:49.173Z,54.22
2018-07-09T15:37:17.665Z,54.69
2018-07-09T15:39:46.275Z,54.35
2018-07-09T15:42:14.823Z,54.30
2018-07-09T15:44:43.312Z,54.68
2018-07-09T15:47:11.790Z,54.27
2018-07-09T15:49:40.893Z,54.18
2018-07-09T15:52:09.449Z,54.26
2018-07-09T15:54:37.903Z,53.63
2018-07-09T15:57:06.505Z,54.36
2018-07-09T15:59:35.007Z,54.19
2018-07-09T16:02:03.539Z,54.89
2018-07-09T16:04:32.023Z,54.75
2018-07-09T16:07:00.501Z,54.64
2018-07-09T16:09:28.919Z,54.97
2018-07-09T16:11:57.401Z,54.97
2018-07-09T16:14:26.053Z,55.84
2018-07-09T16:16:54.545Z,55.61
2018-07-09T16:19:23.025Z,55.67
2018-07-09T16:21:51.548Z,55.58
2018-07-09T16:24:19.982Z,55.71
2018-07-09T16:26:48.452Z,55.98
2018-07-09T16:29:17.013Z,56.08
2018-07-09T16:31:45.346Z,56.79
2018-07-09T16:34:13.768Z,57.16
2018-07-09T16:36:42.208Z,56.80
2018-07-09T16:39:10.716Z,57.23
2018-07-09T16:41:39.312Z,57.46
2018-07-09T16:44:07.794Z,57.13
2018-07-09T16:46:36.230Z,57.72
2018-07-09T16:49:04.754Z,57.75
2018-07-09T16:51:33.231Z,57.80
2018-07-09T16:54:01.724Z,57.81
2018-07-09T16:56:30.212Z,58.27
2018-07-09T16:58:58.772Z,58.04
2018-07-09T17:01:27.224Z,58.50
2018-07-09T17:03:55.669Z,59.00
2018-07-09T17:06:24.302Z,59.19
2018-07-09T17:08:52.820Z,59.57
2018-07-09T17:11:21.360Z,59.61
2018-07-09T17:13:49.890Z,59.97
2018-07-09T17:16:18.389Z,60.53
2018-07-09T17:18:46.908Z,61.29
2018-07-09T17:21:15.421Z,61.01
2018-07-09T17:23:44.062Z,61.37
2018-07-09T17:26:12.548Z,60.87
2018-07-09T17:28:41.127Z,61.40
2018-07-09T17:31:09.607Z,62.21
2018-07-09T17:33:38.082Z,62.15
2018-07-09T17:36:06.642Z,62.39
2018-07-09T17:38:35.112Z,62.34
2018-07-09T17:41:03.575Z,61.93
2018-07-09T17:43:31.995Z,61.41
2018-07-09T17:46:00.660Z,61.94
2018-07-09T17:48:29.146Z,61.96
2018-07-09T17:50:57.827Z,61.83
2018-07-09T17:53:26.315Z,61.72
2018-07-09T17:55:54.781Z,62.05
2018-07-09T17:58:23.384Z,61.84
2018-07-09T18:00:51.863Z,62.42
2018-07-09T18:03:20.415Z,62.48
2018-07-09T18:05:49.032Z,62.14
2018-07-09T18:08:17.497Z,61.93
2018-07-09T18:10:46.075Z,62.30
2018-07-09T18:13:14.577Z,62.84
2018-07-09T18:15:43.014Z,62.60
2018-07-09T18:18:11.496Z,62.56
2018-07-09T18:20:39.940Z,63.17
2018-07-09T18:23:08.433Z,62.80
2018-07-09T18:25:36.823Z,62.74
2018-07-09T18:28:05.293Z,63.14
2018-07-09T18:30:33.811Z,63.67
2018-07-09T18:33:02.352Z,63.53
2018-07-09T18:35:30.812Z,64.15
2018-07-09T18:37:59.815Z,63.69
2018-07-09T18:40:28.671Z,64.40
2018-07-09T18:42:57.149Z,64.94
2018-07-09T18:45:25.580Z,64.88
2018-07-09T18:47:54.079Z,65.42
2018-07-09T18:50:22.562Z,65.32
2018-07-09T18:52:51.063Z,65.20
2018-07-09T18:55:19.662Z,64.73
2018-07-09T18:57:48.247Z,65.28
2018-07-09T19:00:16.831Z,65.33
2018-07-09T19:02:45.706Z,65.66
2018-07-09T19:05:14.287Z,66.13
2018-07-09T19:07:42.789Z,66.61
2018-07-09T19:10:11.325Z,66.93
2018-07-09T19:12:39.820Z,66.67
2018-07-09T19:15:09.152Z,66.61
2018-07-09T19:17:58.904Z,67.65
2018-07-09T19:20:38.476Z,67.91
2018-07-09T19:23:06.767Z,68.00
2018-07-09T19:25:35.105Z,67.88
2018-07-09T19:28:02.927Z,67.50
2018-07-09T19:30:30.170Z,66.87
2018-07-09T19:32:57.385Z,66.80
2018-07-09T19:35:24.752Z,67.02
2018-07-09T19:37:52.501Z,68.04
2018-07-09T19:40:19.264Z,67.97
2018-07-09T19:42:46.500Z,67.28
2018-07-09T19:45:13.756Z,67.48
2018-07-09T19:47:41.025Z,68.24
2018-07-09T19:50:08.298Z,67.98
2018-07-09T19:52:35.556Z,66.89
2018-07-09T19:55:02.804Z,67.11
2018-07-09T19:57:30.057Z,66.92
2018-07-09T19:59:57.296Z,67.12
2018-07-09T20:02:24.606Z,67.01
2018-07-09T20:04:51.880Z,67.35
2018-07-09T20:10:22.096Z,67.61
2018-07-09T20:12:54.655Z,67.54
2018-07-09T20:15:27.153Z,67.14
2018-07-09T20:17:54.418Z,67.83
2018-07-09T20:20:21.680Z,67.46
2018-07-09T20:22:48.967Z,67.78
2018-07-09T20:25:16.239Z,68.04
2018-07-09T20:27:43.499Z,67.54
2018-07-09T20:30:10.769Z,67.22
2018-07-09T20:32:38.036Z,67.92
2018-07-09T20:35:05.317Z,67.79
2018-07-09T20:37:32.598Z,66.89
2018-07-09T20:39:59.909Z,66.37
2018-07-09T20:42:27.243Z,67.08
2018-07-09T20:44:54.800Z,66.56
2018-07-09T20:47:22.047Z,66.45
2018-07-09T20:49:49.360Z,67.19
2018-07-09T20:52:16.631Z,66.90
2018-07-09T20:54:43.892Z,67.05
2018-07-09T20:57:11.244Z,66.65
2018-07-09T20:59:38.500Z,66.85
2018-07-09T21:02:05.849Z,66.76
2018-07-09T21:04:33.432Z,66.28
2018-07-09T21:07:02.025Z,66.36
2018-07-09T21:09:30.204Z,66.58
2018-07-09T21:11:57.945Z,65.26
2018-07-09T21:14:25.211Z,66.03
2018-07-09T21:16:52.474Z,65.19
2018-07-09T21:19:20.687Z,65.73
2018-07-09T21:21:47.927Z,65.29
2018-07-09T21:24:15.207Z,65.43
2018-07-09T21:26:42.445Z,66.36
2018-07-09T21:29:09.809Z,66.15
2018-07-09T21:31:37.025Z,66.76
2018-07-09T21:34:04.285Z,66.93
2018-07-09T21:36:31.548Z,66.76
2018-07-09T21:38:58.810Z,67.04
2018-07-09T21:41:26.066Z,66.75
2018-07-09T21:43:53.315Z,67.19
2018-07-09T21:46:20.580Z,67.49
2018-07-09T21:48:47.854Z,67.55
2018-07-09T21:51:15.109Z,67.69
2018-07-09T21:53:42.388Z,67.69
2018-07-09T21:56:09.655Z,67.11
2018-07-09T21:58:36.962Z,67.51
2018-07-09T22:01:04.229Z,67.36
2018-07-09T22:03:31.465Z,67.28
2018-07-09T22:05:58.732Z,67.93
2018-07-09T22:08:25.971Z,68.17
2018-07-09T22:10:53.217Z,67.80
2018-07-09T22:13:20.480Z,68.33
2018-07-09T22:15:47.709Z,68.26
2018-07-09T22:18:15.008Z,68.32
2018-07-09T22:20:42.294Z,67.64
2018-07-09T22:23:09.571Z,67.66
2018-07-09T22:25:36.916Z,68.60
2018-07-09T22:28:04.246Z,68.41
2018-07-09T22:30:32.760Z,67.90
2018-07-09T22:33:01.220Z,68.14
2018-07-09T22:35:29.870Z,68.21
2018-07-09T22:37:58.317Z,68.91
2018-07-09T22:40:26.770Z,69.21
2018-07-09T22:42:55.270Z,68.50
2018-07-09T22:45:23.753Z,68.79
2018-07-09T22:47:52.229Z,69.08
2018-07-09T22:50:20.749Z,68.74
2018-07-09T22:52:49.271Z,68.66
2018-07-09T22:55:28.915Z,67.94
2018-07-09T22:57:57.398Z,68.15
2018-07-09T23:00:25.915Z,66.89
2018-07-09T23:03:06.301Z,66.97
2018-07-09T23:05:34.790Z,66.91
2018-07-09T23:08:03.321Z,67.11
2018-07-09T23:13:15.235Z,66.83
2018-07-09T23:15:55.190Z,67.40
2018-07-09T23:18:39.542Z,67.33
2018-07-09T23:21:20.109Z,67.64
2018-07-09T23:23:47.381Z,67.65
2018-07-09T23:26:14.616Z,67.60
2018-07-09T23:28:41.911Z,67.12
2018-07-09T23:31:09.162Z,67.09
2018-07-09T23:33:36.415Z,67.79
2018-07-09T23:36:03.723Z,68.26
2018-07-09T23:38:30.977Z,68.24
2018-07-09T23:40:58.236Z,68.80
2018-07-09T23:43:25.476Z,68.38
2018-07-09T23:45:52.728Z,68.25
2018-07-09T23:48:20.033Z,69.13
2018-07-09T23:50:47.387Z,68.33
2018-07-09T23:53:14.683Z,69.39
2018-07-09T23:55:43.642Z,68.84
2018-07-09T23:58:22.149Z,69.31
